LIRV - Viterbo (it-Mil), Italy
Distanza dalla stazione: W 4km
Aggiornamento: Sun, 02-Oct-2022 7:55pm CEST
NON aggiornato
Clear
Clear
 Wind from SW
Vento: SW 6 km/h
Temperatura: 17°C
Dew Point: 15°C
Umidità: 88%
Barometro: 1020 hPa
Previsione: Clear
Visibilità: greater than 10 km
2022/10/02 17:55 LIRV 021755Z 22003KT CAVOK 17/15 Q1020
LIQN - Rieti, Italy
Distanza dalla stazione: E 59km
Aggiornamento: Sun, 02-Oct-2022 7:50pm CEST
NON aggiornato
Clear
Clear
 Wind from varies
Vento: varies 4 km/h
Temperatura: 16°C
Dew Point: 13°C
Umidità: 83%
Barometro: 1022 hPa
Previsione: Clear
Visibilità: greater than 10 km
2022/10/02 17:50 LIQN 021750Z VRB02KT CAVOK 16/13 Q1022
 
LIRU - Rome/Urbe (it-Af, Italy
Distanza dalla stazione: SSE 61km
Aggiornamento: Sun, 02-Oct-2022 6:50pm CEST
NON aggiornato
Clear
Clear
 Wind from SE
Vento: SE 6 km/h
Temperatura: 24°C
Dew Point: 14°C
Umidità: 54%
Barometro: 1019 hPa
Previsione: Clear
Visibilità: greater than 10 km
2022/10/02 16:50 LIRU 021650Z 13003KT CAVOK 24/14 Q1019
LIRG - Guidonia (it-Afb, Italy
Distanza dalla stazione: SE 68km
Aggiornamento: Fri, 30-Sep-2022 7:55pm CEST
NON aggiornato
Partly Cloudy
Partly Cloudy
 Wind from SE
Vento: SE 13 km/h
Temperatura: 20°C
Dew Point: 14°C
Umidità: 69%
Barometro: 1010 hPa
Nuvole: Partly Cloudy
Visibilità: 10 km
Informazioni sulle Nuvole: Partly Cloudy 914 m
2022/09/30 17:55 LIRG 301755Z 14007KT 9999 SCT030 20/14 Q1010
 
LIRF - Rome/Fiumicino, Italy
Distanza dalla stazione: S 71km
Aggiornamento: Mon, 03-Oct-2022 4:20am CEST
Few Clouds
Few Clouds
 Wind from ENE
Vento: ENE 13 km/h
Temperatura: 17°C
Dew Point: 17°C
Umidità: 100%
Barometro: 1017 hPa
Nuvole: Few Clouds
Visibilità: 10 km
Informazioni sulle Nuvole: Few Clouds 366 m
2022/10/03 02:20 LIRF 030220Z 06007KT 9999 FEW012 17/17 Q1017 NOSIG
LIRA - Ciampino(It-Afb/, Italy
Distanza dalla stazione: SSE 79km
Aggiornamento: Mon, 03-Oct-2022 4:20am CEST
Clear
Clear
 Wind from E
Vento: E 11 km/h
Temperatura: 17°C
Dew Point: 14°C
Umidità: 83%
Barometro: 1018 hPa
Previsione: Clear
Visibilità: greater than 10 km
2022/10/03 02:20 LIRA 030220Z 10006KT CAVOK 17/14 Q1018
 
LIRE - Pratica Di Mare(, Italy
Distanza dalla stazione: SSE 90km
Aggiornamento: Mon, 03-Oct-2022 3:55am CEST
Partly Cloudy
Partly Cloudy
 Wind from E
Vento: E 9 km/h
Temperatura: 19°C
Dew Point: 17°C
Umidità: 88%
Barometro: 1016 hPa
Nuvole: Partly Cloudy
Visibilità: 10 km
Informazioni sulle Nuvole: Partly Cloudy 549 m
2022/10/03 01:55 LIRE 030155Z 08005KT 9999 SCT018 19/17 Q1016
LIRS - Grosseto (it-Afb, Italy
Distanza dalla stazione: WNW 93km
Aggiornamento: Mon, 03-Oct-2022 3:55am CEST
Few Clouds
Few Clouds
 Wind from NNE
Vento: NNE 11 km/h
Temperatura: 13°C
Dew Point: 11°C
Umidità: 88%
Barometro: 1018 hPa
Nuvole: Few Clouds
Visibilità: 10 km
Informazioni sulle Nuvole: Few Clouds 1829 m
2022/10/03 01:55 LIRS 030155Z 03006KT 9999 FEW060 13/11 Q1018



Metar display Modification script by: Pomeziameteo / script from Saratoga-Weather.org